KHEY/HEY METAR and TAF weather

Enter ICAO airport designator
Station Type Date Time Source
KHEY METAR 2019/12/09 00:05 UTC NOAA

KHEY 090005Z AUTO 09006KT 9SM FEW039 OVC080 16/12 A3012 RMK AO2 PRESRR SLP202


Station Type Date Time Source
KHEY Decoded METAR 2019/12/09 00:05 UTC NOAA

Hanchey AHP / Ozark, AL, United States (KHEY) 31-21N 085-40W
Dec 08, 2019 - 07:05 PM EST / 2019.12.09 0005 UTC
Wind: from the E (090 degrees) at 7 MPH (6 KT):0
Visibility: 9 mile(s):0
Sky conditions: overcast
Temperature: 60 F (16 C)
Dew Point: 53 F (12 C)
Relative Humidity: 77%
Pressure (altimeter): 30.12 in. Hg (1019 hPa)
Pressure tendency: rising rapidly
ob: KHEY 090005Z AUTO 09006KT 9SM FEW039 OVC080 16/12 A3012 RMK AO2 PRESRR SLP202
cycle: 0

Station Type Date Time Source
KHEY TAF UTC NOAA

Error!

Example: see airport list